Houston, Texas
Traffic Map
Current Weather Conditions
Houston, Texas
Scattered Clouds
Scattered Clouds
54°
Feels Like: 54°
Wind Chill: 54° Ceiling: Unl
Heat Index: 54° Visibility: 10mi
Dew Point: 47° Wind: 5mph
Humidity: 77% Direction: 170° (S)
Pressure: 29.93in Gusts: 0mph
Raw Report DataKIAH 250353Z 17004KT 10SM SCT250 12/08 A2993 RMK AO2 SLP135 T01220083
Traffic Incident Summary
Active as of:
Severity:
Category:
InformationThere was an issue retrieving the traffic information for this location. Please try a different location or try again shortly.
Advertisements